createdAt,value
2018-12-01T00:01:18.054Z,9.33
2018-12-01T00:03:47.442Z,9.13
2018-12-01T00:06:16.610Z,9.03
2018-12-01T00:08:45.602Z,8.80
2018-12-01T00:11:14.889Z,9.53
2018-12-01T00:13:44.659Z,9.10
2018-12-01T00:16:13.872Z,9.37
2018-12-01T00:18:43.434Z,8.87
2018-12-01T00:21:12.973Z,8.30
2018-12-01T00:23:43.164Z,8.40
2018-12-01T00:26:10.963Z,8.17
2018-12-01T00:28:40.573Z,8.07
2018-12-01T00:31:10.755Z,8.77
2018-12-01T00:33:40.015Z,8.43
2018-12-01T00:36:10.658Z,8.30
2018-12-01T00:38:40.540Z,10.13
2018-12-01T00:41:10.362Z,7.27
2018-12-01T00:43:40.672Z,8.10
2018-12-01T00:46:11.204Z,8.97
2018-12-01T00:48:41.727Z,8.20
2018-12-01T00:51:12.474Z,9.27
2018-12-01T00:53:43.713Z,8.60
2018-12-01T00:56:14.005Z,10.03
2018-12-01T00:58:43.136Z,9.40
2018-12-01T01:01:13.149Z,8.07
2018-12-01T01:03:43.728Z,8.40
2018-12-01T01:06:13.866Z,8.23
2018-12-01T01:08:42.861Z,8.67
2018-12-01T01:11:11.786Z,8.60
2018-12-01T01:13:41.891Z,8.63
2018-12-01T01:16:11.828Z,8.30
2018-12-01T01:18:42.560Z,8.33
2018-12-01T01:21:12.934Z,8.90
2018-12-01T01:23:42.390Z,9.17
2018-12-01T01:26:12.515Z,8.13
2018-12-01T01:28:41.600Z,8.70
2018-12-01T01:31:11.005Z,8.53
2018-12-01T01:33:41.335Z,8.97
2018-12-01T01:36:11.968Z,8.67
2018-12-01T01:38:42.259Z,8.37
2018-12-01T01:41:12.435Z,9.43
2018-12-01T01:43:42.964Z,9.13
2018-12-01T01:46:11.990Z,9.10
2018-12-01T01:48:41.437Z,8.93
2018-12-01T01:51:11.073Z,9.73
2018-12-01T01:53:41.333Z,8.80
2018-12-01T01:56:10.637Z,8.90
2018-12-01T01:58:40.051Z,9.10
2018-12-01T02:01:08.877Z,9.33
2018-12-01T02:03:38.744Z,9.53
2018-12-01T02:06:08.830Z,8.83
2018-12-01T02:08:38.690Z,8.83
2018-12-01T02:11:08.599Z,9.30
2018-12-01T02:13:38.613Z,9.87
2018-12-01T02:16:08.455Z,8.97
2018-12-01T02:18:38.811Z,9.50
2018-12-01T02:21:08.689Z,9.87
2018-12-01T02:23:39.023Z,8.87
2018-12-01T02:26:08.594Z,8.93
2018-12-01T02:28:37.723Z,9.53
2018-12-01T02:31:06.817Z,9.53
2018-12-01T02:33:35.913Z,9.43
2018-12-01T02:36:05.876Z,9.50
2018-12-01T02:38:36.466Z,9.93
2018-12-01T02:41:06.305Z,8.97
2018-12-01T02:43:35.259Z,8.73
2018-12-01T02:46:15.118Z,9.73
2018-12-01T02:48:45.052Z,9.50
2018-12-01T02:51:14.814Z,9.67
2018-12-01T02:53:44.558Z,9.63
2018-12-01T02:56:14.468Z,9.20
2018-12-01T02:58:45.001Z,9.60
2018-12-01T03:01:14.681Z,9.77
2018-12-01T03:03:44.239Z,10.37
2018-12-01T03:06:13.481Z,10.63
2018-12-01T03:08:42.877Z,10.13
2018-12-01T03:11:12.585Z,10.83
2018-12-01T03:13:41.216Z,10.63
2018-12-01T03:16:16.252Z,9.77
2018-12-01T03:18:45.538Z,10.27
2018-12-01T03:21:14.806Z,9.97
2018-12-01T03:23:43.885Z,11.90
2018-12-01T03:26:13.481Z,11.93
2018-12-01T03:28:42.874Z,11.07
2018-12-01T03:31:12.382Z,11.13
2018-12-01T03:33:42.266Z,10.30
2018-12-01T03:36:11.742Z,9.77
2018-12-01T03:38:41.185Z,10.63
2018-12-01T03:41:09.738Z,10.00
2018-12-01T03:43:38.937Z,10.43
2018-12-01T03:46:08.068Z,10.30
2018-12-01T03:48:37.001Z,9.47
2018-12-01T03:51:06.727Z,9.37
2018-12-01T03:53:35.695Z,10.20
2018-12-01T03:56:04.741Z,10.87
2018-12-01T03:58:33.992Z,10.97
2018-12-01T04:01:03.258Z,11.17
2018-12-01T04:03:33.429Z,11.43
2018-12-01T04:06:02.826Z,11.63
2018-12-01T04:08:31.513Z,10.90
2018-12-01T04:11:00.903Z,11.23
2018-12-01T04:13:30.058Z,10.77
2018-12-01T04:15:58.883Z,10.37
2018-12-01T04:18:28.360Z,10.47
2018-12-01T04:20:57.785Z,9.50
2018-12-01T04:23:27.033Z,10.47
2018-12-01T04:25:56.270Z,9.77
2018-12-01T04:28:25.324Z,11.53
2018-12-01T04:30:54.984Z,10.53
2018-12-01T04:33:23.909Z,10.50
2018-12-01T04:35:53.551Z,11.43
2018-12-01T04:38:22.889Z,11.73
2018-12-01T04:40:53.077Z,11.73
2018-12-01T04:43:23.230Z,11.90
2018-12-01T04:45:52.740Z,9.93
2018-12-01T04:48:22.565Z,10.53
2018-12-01T04:50:52.436Z,11.30
2018-12-01T04:53:22.579Z,10.57
2018-12-01T04:55:52.359Z,10.97
2018-12-01T04:58:20.938Z,10.47
2018-12-01T05:00:51.100Z,11.27
2018-12-01T05:03:21.081Z,11.23
2018-12-01T05:05:51.023Z,11.67
2018-12-01T05:08:21.253Z,9.60
2018-12-01T05:10:51.614Z,9.80
2018-12-01T05:13:21.941Z,9.87
2018-12-01T05:15:51.914Z,11.33
2018-12-01T05:18:21.878Z,9.60
2018-12-01T05:20:50.971Z,10.03
2018-12-01T05:23:21.016Z,9.87
2018-12-01T05:25:50.934Z,10.43
2018-12-01T05:28:21.011Z,10.43
2018-12-01T05:30:50.817Z,10.23
2018-12-01T05:33:20.984Z,10.80
2018-12-01T05:35:50.726Z,10.13
2018-12-01T05:38:19.625Z,10.10
2018-12-01T05:40:49.381Z,10.37
2018-12-01T05:43:18.633Z,10.83
2018-12-01T05:45:48.818Z,10.00
2018-12-01T05:48:18.018Z,10.33
2018-12-01T05:50:48.253Z,10.60
2018-12-01T05:53:17.544Z,9.63
2018-12-01T05:55:47.148Z,9.13
2018-12-01T05:58:16.111Z,10.07
2018-12-01T06:00:45.205Z,10.37
2018-12-01T06:03:14.436Z,9.70
2018-12-01T06:05:43.690Z,8.97
2018-12-01T06:08:13.345Z,9.80
2018-12-01T06:10:42.405Z,9.20
2018-12-01T06:13:11.015Z,9.13
2018-12-01T06:15:40.178Z,9.13
2018-12-01T06:18:09.215Z,9.73
2018-12-01T06:20:38.931Z,8.90
2018-12-01T06:23:08.423Z,9.57
2018-12-01T06:25:38.768Z,9.17
2018-12-01T06:28:08.948Z,9.97
2018-12-01T06:30:37.829Z,9.67
2018-12-01T06:33:07.209Z,10.17
2018-12-01T06:35:37.226Z,9.47
2018-12-01T06:38:08.132Z,9.70
2018-12-01T06:40:38.250Z,9.67
2018-12-01T06:43:09.087Z,11.13
2018-12-01T06:45:39.119Z,11.03
2018-12-01T06:48:09.138Z,10.73
2018-12-01T06:50:38.658Z,9.77
2018-12-01T06:53:08.498Z,10.17
2018-12-01T06:55:38.052Z,10.60
2018-12-01T06:58:06.916Z,10.37
2018-12-01T07:00:36.171Z,11.03
2018-12-01T07:03:05.523Z,10.40
2018-12-01T07:05:34.608Z,9.70
2018-12-01T07:08:03.875Z,10.60
2018-12-01T07:10:33.147Z,9.30
2018-12-01T07:13:03.319Z,9.30
2018-12-01T07:15:36.549Z,9.57
2018-12-01T07:18:16.436Z,9.80
2018-12-01T07:20:45.631Z,9.17
2018-12-01T07:23:15.678Z,8.80
2018-12-01T07:25:44.970Z,10.13
2018-12-01T07:28:14.279Z,9.87
2018-12-01T07:30:43.964Z,9.53
2018-12-01T07:33:13.847Z,9.93
2018-12-01T07:35:42.753Z,10.37
2018-12-01T07:38:12.436Z,10.80
2018-12-01T07:40:41.560Z,10.03
2018-12-01T07:43:11.186Z,10.67
2018-12-01T07:45:40.696Z,10.17
2018-12-01T07:48:10.253Z,10.37
2018-12-01T07:50:39.029Z,9.43
2018-12-01T07:53:08.358Z,9.67
2018-12-01T07:55:38.417Z,10.17
2018-12-01T07:58:08.249Z,9.63
2018-12-01T08:00:38.113Z,10.00
2018-12-01T08:03:08.208Z,10.50
2018-12-01T08:05:37.641Z,10.67
2018-12-01T08:08:07.071Z,10.90
2018-12-01T08:10:36.364Z,10.50
2018-12-01T08:13:06.262Z,10.63
2018-12-01T08:15:35.634Z,9.73
2018-12-01T08:18:05.094Z,10.90
2018-12-01T08:20:34.510Z,10.10
2018-12-01T08:23:03.770Z,10.20
2018-12-01T08:25:34.295Z,10.67
2018-12-01T08:28:03.984Z,10.80
2018-12-01T08:30:33.855Z,11.33
2018-12-01T08:33:05.724Z,11.73
2018-12-01T08:35:35.000Z,10.87
2018-12-01T08:38:04.338Z,12.97
2018-12-01T08:40:33.903Z,12.53
2018-12-01T08:43:02.837Z,12.90
2018-12-01T08:45:31.968Z,15.77
2018-12-01T08:48:01.149Z,14.70
2018-12-01T08:50:29.756Z,15.03
2018-12-01T08:52:59.170Z,13.77
2018-12-01T08:55:28.074Z,15.03
2018-12-01T08:57:56.881Z,15.77
2018-12-01T09:00:33.188Z,14.77
2018-12-01T09:03:12.359Z,15.13
2018-12-01T09:05:42.201Z,15.20
2018-12-01T09:08:12.011Z,15.63
2018-12-01T09:10:41.529Z,16.10
2018-12-01T09:13:11.566Z,14.90
2018-12-01T09:15:41.494Z,15.70
2018-12-01T09:18:11.380Z,16.33
2018-12-01T09:20:40.436Z,16.13
2018-12-01T09:23:10.106Z,14.93
2018-12-01T09:25:39.737Z,15.17
2018-12-01T09:28:10.207Z,14.50
2018-12-01T09:30:41.137Z,13.53
2018-12-01T09:33:11.151Z,12.17
2018-12-01T09:35:41.002Z,11.50
2018-12-01T09:38:16.121Z,11.90
2018-12-01T09:40:46.571Z,12.07
2018-12-01T09:43:15.485Z,12.10
2018-12-01T09:45:44.785Z,11.77
2018-12-01T09:48:14.549Z,11.50
2018-12-01T09:50:45.347Z,11.67
2018-12-01T09:53:15.851Z,11.70
2018-12-01T09:55:46.345Z,10.50
2018-12-01T09:58:16.349Z,9.77
2018-12-01T10:00:45.807Z,9.07
2018-12-01T10:03:15.194Z,9.23
2018-12-01T10:05:44.661Z,9.73
2018-12-01T10:08:14.004Z,10.33
2018-12-01T10:10:43.722Z,9.27
2018-12-01T10:13:14.208Z,9.07
2018-12-01T10:15:44.457Z,8.23
2018-12-01T10:18:14.174Z,8.97
2018-12-01T10:20:43.988Z,6.10
2018-12-01T10:23:13.996Z,5.40
2018-12-01T10:25:43.962Z,5.13
2018-12-01T10:28:13.133Z,4.50
2018-12-01T10:30:43.027Z,5.00
2018-12-01T10:33:12.340Z,3.93
2018-12-01T10:35:41.568Z,4.33
2018-12-01T10:38:13.769Z,4.33
2018-12-01T10:40:43.303Z,4.27
2018-12-01T10:43:13.425Z,3.83
2018-12-01T10:45:43.565Z,4.40
2018-12-01T10:48:15.556Z,4.17
2018-12-01T10:50:45.190Z,3.90
2018-12-01T10:53:16.277Z,3.83
2018-12-01T10:55:46.360Z,3.47
2018-12-01T10:58:20.059Z,3.10
2018-12-01T11:00:55.235Z,3.57
2018-12-01T11:03:31.224Z,3.17
2018-12-01T11:06:01.500Z,3.20
2018-12-01T11:08:30.609Z,3.63
2018-12-01T11:11:00.165Z,3.40
2018-12-01T11:13:43.738Z,3.90
2018-12-01T11:16:14.358Z,4.30
2018-12-01T11:18:44.210Z,3.20
2018-12-01T11:21:13.899Z,3.00
2018-12-01T11:23:43.215Z,3.13
2018-12-01T11:26:13.209Z,3.10
2018-12-01T11:28:42.767Z,3.23
2018-12-01T11:31:12.643Z,3.67
2018-12-01T11:33:42.119Z,3.57
2018-12-01T11:36:12.774Z,4.00
2018-12-01T11:38:41.761Z,3.87
2018-12-01T11:41:11.138Z,3.80
2018-12-01T11:43:40.247Z,3.77
2018-12-01T11:46:09.788Z,3.67
2018-12-01T11:48:39.407Z,4.13
2018-12-01T11:51:09.188Z,3.67
2018-12-01T11:53:39.117Z,4.43
2018-12-01T11:56:08.649Z,3.43
2018-12-01T11:58:38.315Z,3.10
2018-12-01T12:01:07.138Z,2.90
2018-12-01T12:03:36.672Z,3.37
2018-12-01T12:06:05.916Z,3.03
2018-12-01T12:08:35.350Z,2.87
2018-12-01T12:11:04.654Z,2.90
2018-12-01T12:13:34.213Z,2.90
2018-12-01T12:16:03.730Z,2.60
2018-12-01T12:18:35.481Z,2.47
2018-12-01T12:21:05.714Z,2.97
2018-12-01T12:23:35.049Z,2.40
2018-12-01T12:26:04.417Z,2.60
2018-12-01T12:28:34.902Z,3.60
2018-12-01T12:31:04.286Z,3.30
2018-12-01T12:33:34.062Z,3.60
2018-12-01T12:36:03.973Z,3.03
2018-12-01T12:38:33.527Z,3.13
2018-12-01T12:41:04.115Z,3.27
2018-12-01T12:43:34.682Z,3.57
2018-12-01T12:46:05.179Z,3.53
2018-12-01T12:48:34.784Z,4.43
2018-12-01T12:51:04.371Z,3.50
2018-12-01T12:53:33.998Z,3.47
2018-12-01T12:56:03.610Z,3.60
2018-12-01T12:58:33.525Z,3.87
2018-12-01T13:01:02.948Z,3.73
2018-12-01T13:03:32.692Z,4.77
2018-12-01T13:06:01.596Z,3.77
2018-12-01T13:08:31.741Z,3.30
2018-12-01T13:11:02.478Z,3.83
2018-12-01T13:13:32.190Z,3.20
2018-12-01T13:16:01.393Z,3.30
2018-12-01T13:18:31.194Z,3.30
2018-12-01T13:21:01.113Z,3.20
2018-12-01T13:23:30.369Z,3.37
2018-12-01T13:25:59.835Z,2.70
2018-12-01T13:28:44.096Z,2.90
2018-12-01T13:31:14.360Z,2.80
2018-12-01T13:33:43.386Z,2.83
2018-12-01T13:36:14.145Z,2.73
2018-12-01T13:38:43.405Z,2.80
2018-12-01T13:41:13.512Z,4.20
2018-12-01T13:43:43.578Z,2.50
2018-12-01T13:46:13.700Z,2.50
2018-12-01T13:48:43.253Z,2.60
2018-12-01T13:51:12.637Z,2.33
2018-12-01T13:53:42.856Z,2.60
2018-12-01T13:56:13.246Z,2.00
2018-12-01T13:58:41.950Z,2.27
2018-12-01T14:01:11.572Z,2.70
2018-12-01T14:03:42.210Z,2.63
2018-12-01T14:06:11.875Z,3.00
2018-12-01T14:08:41.243Z,3.27
2018-12-01T14:11:10.455Z,2.20
2018-12-01T14:13:40.390Z,2.10
2018-12-01T14:16:10.326Z,2.30
2018-12-01T14:18:39.711Z,2.30
2018-12-01T14:21:09.245Z,2.63
2018-12-01T14:23:38.150Z,3.37
2018-12-01T14:26:07.263Z,3.10
2018-12-01T14:28:36.317Z,2.20
2018-12-01T14:31:06.694Z,2.77
2018-12-01T14:33:36.744Z,4.07
2018-12-01T14:36:07.758Z,3.23
2018-12-01T14:38:37.348Z,3.13
2018-12-01T14:41:07.235Z,4.67
2018-12-01T14:43:37.266Z,3.50
2018-12-01T14:46:07.855Z,4.00
2018-12-01T14:48:39.573Z,2.97
2018-12-01T14:51:09.630Z,2.93
2018-12-01T14:53:38.878Z,4.00
2018-12-01T14:56:09.019Z,3.60
2018-12-01T14:58:42.383Z,3.47
2018-12-01T15:01:07.176Z,3.70
2018-12-01T15:03:36.722Z,3.67
2018-12-01T15:06:06.560Z,4.10
2018-12-01T15:08:38.252Z,4.07
2018-12-01T15:11:07.694Z,4.17
2018-12-01T15:13:37.314Z,3.23
2018-12-01T15:16:06.959Z,2.70
2018-12-01T15:18:36.163Z,2.40
2018-12-01T15:21:06.706Z,2.43
2018-12-01T15:23:36.330Z,2.90
2018-12-01T15:26:06.291Z,2.97
2018-12-01T15:28:36.949Z,2.77
2018-12-01T15:31:06.632Z,2.93
2018-12-01T15:33:36.236Z,2.97
2018-12-01T15:36:05.817Z,3.47
2018-12-01T15:38:35.720Z,3.80
2018-12-01T15:41:04.976Z,3.83
2018-12-01T15:43:34.437Z,4.00
2018-12-01T15:46:03.691Z,3.90
2018-12-01T15:48:33.233Z,3.80
2018-12-01T15:51:02.524Z,4.60
2018-12-01T15:53:34.561Z,6.03
2018-12-01T15:56:04.209Z,6.07
2018-12-01T15:58:33.560Z,6.37
2018-12-01T16:01:04.815Z,8.33
2018-12-01T16:03:34.906Z,10.27
2018-12-01T16:06:04.002Z,9.47
2018-12-01T16:08:32.673Z,8.03
2018-12-01T16:11:02.621Z,6.00
2018-12-01T16:13:33.102Z,5.40
2018-12-01T16:16:04.458Z,5.30
2018-12-01T16:18:34.373Z,6.00
2018-12-01T16:21:03.759Z,5.17
2018-12-01T16:23:33.155Z,5.33
2018-12-01T16:26:02.398Z,5.60
2018-12-01T16:28:32.146Z,6.53
2018-12-01T16:31:01.622Z,5.40
2018-12-01T16:33:30.545Z,5.60
2018-12-01T16:35:59.809Z,6.47
2018-12-01T16:38:31.315Z,8.90
2018-12-01T16:41:02.660Z,8.70
2018-12-01T16:43:33.905Z,7.50
2018-12-01T16:46:03.386Z,7.33
2018-12-01T16:48:33.390Z,10.93
2018-12-01T16:51:02.656Z,8.90
2018-12-01T16:53:32.568Z,6.23
2018-12-01T16:56:01.891Z,6.13
2018-12-01T16:58:31.821Z,5.13
2018-12-01T17:01:01.268Z,5.13
2018-12-01T17:03:30.282Z,4.47
2018-12-01T17:06:03.130Z,4.97
2018-12-01T17:08:33.006Z,5.87
2018-12-01T17:11:02.570Z,9.93
2018-12-01T17:13:31.628Z,7.07
2018-12-01T17:16:01.199Z,7.20
2018-12-01T17:18:31.439Z,7.03
2018-12-01T17:21:00.367Z,7.27
2018-12-01T17:23:29.742Z,6.87
2018-12-01T17:25:59.529Z,9.23
2018-12-01T17:28:28.363Z,7.47
2018-12-01T17:30:57.790Z,6.27
2018-12-01T17:33:27.121Z,6.87
2018-12-01T17:35:56.000Z,7.03
2018-12-01T17:38:25.191Z,7.00
2018-12-01T17:40:59.518Z,6.70
2018-12-01T17:43:38.490Z,6.77
2018-12-01T17:46:08.288Z,6.80
2018-12-01T17:48:37.484Z,5.50
2018-12-01T17:51:06.332Z,4.70
2018-12-01T17:53:35.779Z,6.10
2018-12-01T17:56:06.917Z,5.03
2018-12-01T17:58:36.856Z,5.13
2018-12-01T18:01:07.367Z,6.30
2018-12-01T18:03:37.311Z,7.03
2018-12-01T18:06:10.605Z,7.13
2018-12-01T18:08:41.487Z,8.53
2018-12-01T18:11:12.497Z,8.57
2018-12-01T18:13:42.518Z,7.80
2018-12-01T18:16:12.084Z,8.97
2018-12-01T18:18:41.083Z,8.53
2018-12-01T18:21:11.058Z,8.80
2018-12-01T18:23:40.530Z,9.17
2018-12-01T18:26:11.391Z,7.60
2018-12-01T18:28:45.962Z,8.73
2018-12-01T18:31:22.165Z,7.23
2018-12-01T18:33:55.414Z,8.57
2018-12-01T18:36:25.230Z,8.43
2018-12-01T18:38:54.910Z,9.40
2018-12-01T18:41:24.649Z,10.40
2018-12-01T18:43:54.601Z,10.87
2018-12-01T18:46:23.658Z,10.03
2018-12-01T18:48:53.043Z,8.70
2018-12-01T18:51:22.715Z,9.30
2018-12-01T18:53:51.397Z,8.03
2018-12-01T18:56:20.795Z,7.60
2018-12-01T18:58:50.319Z,7.40
2018-12-01T19:01:20.075Z,8.33
2018-12-01T19:03:49.506Z,7.70
2018-12-01T19:06:18.280Z,8.73
2018-12-01T19:08:47.630Z,7.50
2018-12-01T19:11:19.647Z,8.07
2018-12-01T19:13:49.085Z,8.50
2018-12-01T19:16:18.761Z,7.50
2018-12-01T19:18:47.336Z,8.60
2018-12-01T19:21:17.516Z,9.57
2018-12-01T19:23:46.914Z,9.87
2018-12-01T19:26:16.579Z,8.80
2018-12-01T19:28:45.943Z,8.33
2018-12-01T19:31:15.706Z,9.27
2018-12-01T19:33:44.614Z,7.97
2018-12-01T19:36:13.993Z,7.37
2018-12-01T19:38:43.798Z,7.27
2018-12-01T19:41:13.880Z,8.30
2018-12-01T19:43:43.867Z,7.93
2018-12-01T19:46:12.758Z,9.10
2018-12-01T19:48:41.649Z,8.97
2018-12-01T19:51:10.773Z,9.63
2018-12-01T19:53:39.661Z,9.47
2018-12-01T19:56:10.235Z,8.43
2018-12-01T19:58:39.555Z,9.43
2018-12-01T20:01:10.489Z,9.20
2018-12-01T20:03:40.225Z,9.17
2018-12-01T20:06:10.487Z,9.83
2018-12-01T20:08:39.543Z,10.40
2018-12-01T20:11:10.395Z,9.60
2018-12-01T20:13:43.005Z,9.67
2018-12-01T20:16:23.270Z,9.47
2018-12-01T20:18:53.130Z,10.57
2018-12-01T20:21:22.313Z,9.33
2018-12-01T20:23:51.541Z,10.13
2018-12-01T20:26:21.176Z,10.97
2018-12-01T20:28:51.436Z,10.43
2018-12-01T20:31:20.917Z,9.77
2018-12-01T20:33:50.602Z,11.60
2018-12-01T20:36:27.569Z,10.40
2018-12-01T20:39:08.879Z,9.87
2018-12-01T20:41:39.155Z,10.20
2018-12-01T20:44:08.750Z,9.30
2018-12-01T20:46:38.712Z,10.20
2018-12-01T20:49:08.377Z,10.30
2018-12-01T20:51:39.129Z,10.67
2018-12-01T20:54:12.204Z,10.47
2018-12-01T20:56:41.165Z,10.03
2018-12-01T20:59:10.427Z,10.50
2018-12-01T21:01:40.060Z,9.87
2018-12-01T21:04:09.020Z,9.67
2018-12-01T21:06:37.990Z,9.83
2018-12-01T21:09:10.142Z,8.73
2018-12-01T21:11:39.774Z,8.90
2018-12-01T21:14:08.915Z,8.73
2018-12-01T21:16:37.930Z,8.90
2018-12-01T21:19:06.974Z,10.10
2018-12-01T21:21:36.029Z,9.07
2018-12-01T21:24:05.429Z,8.90
2018-12-01T21:26:34.325Z,10.30
2018-12-01T21:29:04.138Z,10.20
2018-12-01T21:31:33.781Z,8.80
2018-12-01T21:34:03.320Z,9.70
2018-12-01T21:36:32.709Z,10.03
2018-12-01T21:39:02.377Z,10.07
2018-12-01T21:41:31.245Z,10.97
2018-12-01T21:44:00.181Z,9.73
2018-12-01T21:46:30.519Z,9.10
2018-12-01T21:49:00.355Z,9.07
2018-12-01T21:51:29.950Z,8.83
2018-12-01T21:53:59.024Z,7.93
2018-12-01T21:56:28.506Z,7.30
2018-12-01T21:58:57.248Z,7.17
2018-12-01T22:01:26.621Z,6.57
2018-12-01T22:03:56.464Z,6.83
2018-12-01T22:06:25.776Z,6.50
2018-12-01T22:08:55.368Z,5.93
2018-12-01T22:11:25.466Z,5.43
2018-12-01T22:13:54.895Z,5.97
2018-12-01T22:16:25.428Z,5.83
2018-12-01T22:18:55.342Z,5.87
2018-12-01T22:21:25.564Z,6.13
2018-12-01T22:23:54.693Z,6.03
2018-12-01T22:26:23.550Z,5.77
2018-12-01T22:28:52.695Z,5.80
2018-12-01T22:31:21.828Z,5.57
2018-12-01T22:33:51.122Z,6.20
2018-12-01T22:36:20.790Z,6.53
2018-12-01T22:38:50.549Z,6.33
2018-12-01T22:41:19.764Z,6.87
2018-12-01T22:43:49.347Z,6.80
2018-12-01T22:46:19.125Z,7.20
2018-12-01T22:48:48.791Z,6.17
2018-12-01T22:51:18.093Z,7.17
2018-12-01T22:53:48.400Z,6.30
2018-12-01T22:56:18.392Z,6.33
2018-12-01T22:58:47.787Z,8.33
2018-12-01T23:01:17.636Z,7.73
2018-12-01T23:03:47.417Z,9.17
2018-12-01T23:06:17.014Z,9.03
2018-12-01T23:08:46.444Z,7.00
2018-12-01T23:11:18.875Z,6.37
2018-12-01T23:13:49.175Z,6.20
2018-12-01T23:16:18.664Z,6.57
2018-12-01T23:18:48.081Z,5.93
2018-12-01T23:21:20.624Z,6.50
2018-12-01T23:23:46.750Z,6.83
2018-12-01T23:26:16.324Z,7.40
2018-12-01T23:28:45.661Z,7.00
2018-12-01T23:31:15.318Z,7.43
2018-12-01T23:33:44.421Z,6.93
2018-12-01T23:36:13.873Z,7.87
2018-12-01T23:38:43.630Z,8.60
2018-12-01T23:41:13.015Z,9.57
2018-12-01T23:43:42.833Z,9.30
2018-12-01T23:46:12.546Z,9.27
2018-12-01T23:48:42.685Z,9.20
2018-12-01T23:51:12.292Z,9.67
2018-12-01T23:53:42.436Z,8.00
2018-12-01T23:56:12.000Z,7.97
2018-12-01T23:58:42.083Z,8.97
